Time;durP1;ratioP1;P1;durP2;ratioP2;P2;SDS_P1;SDS_P2;PMS_P1;PMS_P2;Temp;Humidity;BMP_temperature;BMP_pressure;BME280_temperature;BME280_humidity;BME280_pressure;Samples;Min_cycle;Max_cycle;Signal;HPM_P1;HPM_P2
2023/09/29 00:01:32;;;;;;;2.72;0.50;;;;;;;;;;4978524;28;20046;-67
2023/09/29 00:03:59;;;;;;;3.25;0.70;;;;;;;;;;4965105;28;20337;-69
2023/09/29 00:06:26;;;;;;;3.60;0.50;;;;;;;;;;4993884;28;20062;-65
2023/09/29 00:08:52;;;;;;;2.97;0.70;;;;;;;;;;4979705;28;20038;-68
2023/09/29 00:11:19;;;;;;;9.00;0.90;;;;;;;;;;4974725;28;20129;-66
2023/09/29 00:13:45;;;;;;;1.48;0.45;;;;;;;;;;4976891;28;20058;-68
2023/09/29 00:16:12;;;;;;;7.57;0.73;;;;;;;;;;4978897;28;21485;-65
2023/09/29 00:18:39;;;;;;;8.70;0.93;;;;;;;;;;4978632;28;20490;-66
2023/09/29 00:21:06;;;;;;;7.57;0.82;;;;;;;;;;4978945;28;20050;-66
2023/09/29 00:23:32;;;;;;;4.00;0.68;;;;;;;;;;4977891;28;20042;-68
2023/09/29 00:26:02;;;;;;;2.35;0.70;;;;;;;;;;4978246;28;20096;-66
2023/09/29 00:28:29;;;;;;;4.43;0.82;;;;;;;;;;4976576;28;20049;-65
2023/09/29 00:30:55;;;;;;;3.92;0.95;;;;;;;;;;4979241;28;20057;-66
2023/09/29 00:33:22;;;;;;;4.60;0.63;;;;;;;;;;4978156;28;20061;-66
2023/09/29 00:35:51;;;;;;;2.83;0.65;;;;;;;;;;4993802;28;20560;-66
2023/09/29 00:38:17;;;;;;;3.17;0.60;;;;;;;;;;4993801;28;20431;-66
2023/09/29 00:40:44;;;;;;;4.25;0.55;;;;;;;;;;4987258;28;20538;-66
2023/09/29 00:43:11;;;;;;;1.98;0.60;;;;;;;;;;5007960;28;20411;-66
2023/09/29 00:45:38;;;;;;;1.23;0.50;;;;;;;;;;4985065;28;20129;-69
2023/09/29 00:48:07;;;;;;;3.95;1.00;;;;;;;;;;4977805;28;21380;-66
2023/09/29 00:50:35;;;;;;;2.22;0.75;;;;;;;;;;4976492;28;20069;-66
2023/09/29 00:53:13;;;;;;;5.10;0.80;;;;;;;;;;4977412;28;20450;-66
2023/09/29 00:55:41;;;;;;;2.85;0.68;;;;;;;;;;4976414;28;20594;-68
2023/09/29 00:58:08;;;;;;;1.90;0.55;;;;;;;;;;4991927;28;20045;-67
2023/09/29 01:00:40;;;;;;;1.92;0.43;;;;;;;;;;4977594;28;20030;-66
2023/09/29 01:03:12;;;;;;;1.85;0.50;;;;;;;;;;4996282;28;20457;-65
2023/09/29 01:05:42;;;;;;;1.60;0.50;;;;;;;;;;4979172;28;20097;-66
2023/09/29 01:08:09;;;;;;;2.63;0.43;;;;;;;;;;5007788;28;20129;-66
2023/09/29 01:10:36;;;;;;;1.20;0.43;;;;;;;;;;4977671;28;20038;-66
2023/09/29 01:13:03;;;;;;;4.93;0.52;;;;;;;;;;4973182;28;20518;-64
2023/09/29 01:15:32;;;;;;;2.97;0.70;;;;;;;;;;4976126;28;20364;-65
2023/09/29 01:18:00;;;;;;;3.60;0.60;;;;;;;;;;4977800;28;20125;-65
2023/09/29 01:20:30;;;;;;;2.20;0.60;;;;;;;;;;4977241;28;20181;-66
2023/09/29 01:22:58;;;;;;;2.30;0.50;;;;;;;;;;4977171;28;20092;-66
2023/09/29 01:25:24;;;;;;;1.63;0.52;;;;;;;;;;4976840;28;20045;-66
2023/09/29 01:27:52;;;;;;;1.67;0.60;;;;;;;;;;4976479;28;20052;-65
2023/09/29 01:30:19;;;;;;;1.92;0.57;;;;;;;;;;4982993;28;20075;-67
2023/09/29 01:32:50;;;;;;;1.17;0.50;;;;;;;;;;4991116;28;20069;-65
2023/09/29 01:35:17;;;;;;;2.65;0.55;;;;;;;;;;4974629;28;20058;-67
2023/09/29 01:37:47;;;;;;;1.23;0.47;;;;;;;;;;4983081;28;20552;-65
2023/09/29 01:40:14;;;;;;;2.28;0.63;;;;;;;;;;4987780;28;21187;-66
2023/09/29 01:42:42;;;;;;;4.10;0.60;;;;;;;;;;4977596;28;20123;-66
2023/09/29 01:45:15;;;;;;;3.42;0.70;;;;;;;;;;4977012;28;20057;-65
2023/09/29 01:47:42;;;;;;;;;;;;;;;;;;4978442;28;20573;-64
2023/09/29 01:50:10;;;;;;;3.95;0.75;;;;;;;;;;4980247;28;19922;-65
2023/09/29 01:52:38;;;;;;;2.95;0.70;;;;;;;;;;5010021;28;20109;-65
2023/09/29 01:55:16;;;;;;;2.05;0.70;;;;;;;;;;4977727;28;20050;-65
2023/09/29 01:57:43;;;;;;;2.95;0.60;;;;;;;;;;4974929;28;20042;-66
2023/09/29 02:00:20;;;;;;;2.45;0.60;;;;;;;;;;4980336;28;20030;-64
2023/09/29 02:02:47;;;;;;;1.77;0.55;;;;;;;;;;4978529;28;20073;-66
2023/09/29 02:05:17;;;;;;;1.52;0.52;;;;;;;;;;4979350;28;20038;-65
2023/09/29 02:07:45;;;;;;;2.22;0.70;;;;;;;;;;4978812;28;20424;-64
2023/09/29 02:10:11;;;;;;;2.72;0.80;;;;;;;;;;4978627;28;20045;-64
2023/09/29 02:12:48;;;;;;;2.45;0.75;;;;;;;;;;4980725;28;20041;-65
2023/09/29 02:15:19;;;;;;;4.07;0.77;;;;;;;;;;4980657;28;20053;-66
2023/09/29 02:17:48;;;;;;;2.22;0.70;;;;;;;;;;4977840;28;20047;-66
2023/09/29 02:20:28;;;;;;;3.85;0.80;;;;;;;;;;4981555;28;20030;-65
2023/09/29 02:22:55;;;;;;;6.15;1.00;;;;;;;;;;4975732;28;20553;-65
2023/09/29 02:25:25;;;;;;;4.05;0.75;;;;;;;;;;4979276;28;20045;-65
2023/09/29 02:27:55;;;;;;;3.72;0.60;;;;;;;;;;4988061;28;20046;-64
2023/09/29 02:30:22;;;;;;;4.45;1.00;;;;;;;;;;4980074;28;20144;-68
2023/09/29 02:32:52;;;;;;;2.97;0.82;;;;;;;;;;4980797;28;20418;-66
2023/09/29 02:35:19;;;;;;;3.00;0.80;;;;;;;;;;4979490;28;20056;-65
2023/09/29 02:37:47;;;;;;;3.22;1.08;;;;;;;;;;4978065;28;20069;-66
2023/09/29 02:40:16;;;;;;;4.82;1.60;;;;;;;;;;4979161;28;20038;-66
2023/09/29 02:42:47;;;;;;;3.40;1.13;;;;;;;;;;4979950;28;20049;-65
2023/09/29 02:45:14;;;;;;;3.85;0.93;;;;;;;;;;4980069;28;20054;-66
2023/09/29 02:47:41;;;;;;;3.33;0.88;;;;;;;;;;4979891;28;20554;-64
2023/09/29 02:50:12;;;;;;;2.65;0.77;;;;;;;;;;4978570;28;20042;-64
2023/09/29 02:52:40;;;;;;;2.85;0.82;;;;;;;;;;4978301;28;20046;-65
2023/09/29 02:55:11;;;;;;;5.03;0.80;;;;;;;;;;4977189;28;20698;-65
2023/09/29 02:57:38;;;;;;;3.00;0.80;;;;;;;;;;4978346;28;20251;-65
2023/09/29 03:00:06;;;;;;;3.70;0.80;;;;;;;;;;4978232;28;20049;-65
2023/09/29 03:02:33;;;;;;;3.42;0.82;;;;;;;;;;4977546;28;20046;-66
2023/09/29 03:05:00;;;;;;;2.33;0.75;;;;;;;;;;4977948;28;20443;-66
2023/09/29 03:07:27;;;;;;;4.65;0.93;;;;;;;;;;4979643;28;20145;-64
2023/09/29 03:09:55;;;;;;;5.38;1.10;;;;;;;;;;4979771;28;20030;-65
2023/09/29 03:12:22;;;;;;;2.75;0.70;;;;;;;;;;4986146;28;20645;-67
2023/09/29 03:14:49;;;;;;;2.08;0.70;;;;;;;;;;4979092;28;20070;-66
2023/09/29 03:17:15;;;;;;;2.67;0.80;;;;;;;;;;4979343;28;20149;-66
2023/09/29 03:19:43;;;;;;;2.63;0.70;;;;;;;;;;4977136;28;20051;-67
2023/09/29 03:22:13;;;;;;;1.88;0.63;;;;;;;;;;4977697;28;20041;-66
2023/09/29 03:24:40;;;;;;;3.25;0.82;;;;;;;;;;4971336;28;20061;-67
2023/09/29 03:27:07;;;;;;;2.47;0.70;;;;;;;;;;4979653;28;20065;-67
2023/09/29 03:29:35;;;;;;;1.95;0.50;;;;;;;;;;4979394;28;20372;-65
2023/09/29 03:32:03;;;;;;;2.75;0.70;;;;;;;;;;4985041;28;20104;-65
2023/09/29 03:34:30;;;;;;;2.30;0.80;;;;;;;;;;4979003;28;20058;-65
2023/09/29 03:36:56;;;;;;;4.45;1.13;;;;;;;;;;4978393;28;21132;-65
2023/09/29 03:39:23;;;;;;;3.38;1.10;;;;;;;;;;4979188;28;20132;-65
2023/09/29 03:41:51;;;;;;;3.08;1.02;;;;;;;;;;4979549;28;20096;-65
2023/09/29 03:44:17;;;;;;;5.38;0.93;;;;;;;;;;4978628;28;20061;-65
2023/09/29 03:46:44;;;;;;;3.92;1.00;;;;;;;;;;4977359;28;20046;-65
2023/09/29 03:49:11;;;;;;;2.55;0.80;;;;;;;;;;4978756;28;20740;-67
2023/09/29 03:51:38;;;;;;;2.90;0.70;;;;;;;;;;4978394;28;20070;-67
2023/09/29 03:54:07;;;;;;;3.72;0.55;;;;;;;;;;4977736;28;20053;-65
2023/09/29 03:56:34;;;;;;;3.10;0.90;;;;;;;;;;4977246;28;20438;-66
2023/09/29 03:59:01;;;;;;;2.28;0.60;;;;;;;;;;4978624;28;20046;-66
2023/09/29 04:01:28;;;;;;;3.83;0.70;;;;;;;;;;4977673;28;20113;-64
2023/09/29 04:03:55;;;;;;;4.30;0.80;;;;;;;;;;4978831;28;20050;-64
2023/09/29 04:06:21;;;;;;;2.22;0.77;;;;;;;;;;4976667;28;21439;-66
2023/09/29 04:08:48;;;;;;;1.98;0.60;;;;;;;;;;4977914;28;20049;-65
2023/09/29 04:11:15;;;;;;;2.15;0.60;;;;;;;;;;4976151;28;20041;-65
2023/09/29 04:13:43;;;;;;;2.70;0.70;;;;;;;;;;4977037;28;20557;-65
2023/09/29 04:16:09;;;;;;;3.53;0.90;;;;;;;;;;4976897;28;20096;-65
2023/09/29 04:18:36;;;;;;;5.88;2.22;;;;;;;;;;4978566;28;20399;-65
2023/09/29 04:21:03;;;;;;;4.25;1.83;;;;;;;;;;4976597;28;20121;-65
2023/09/29 04:23:30;;;;;;;4.85;1.60;;;;;;;;;;4976178;28;20057;-65
2023/09/29 04:25:56;;;;;;;5.05;1.40;;;;;;;;;;4976131;28;20060;-65
2023/09/29 04:28:23;;;;;;;4.75;1.20;;;;;;;;;;4977317;28;20061;-65
2023/09/29 04:30:49;;;;;;;3.97;1.20;;;;;;;;;;4976609;28;20034;-65
2023/09/29 04:33:16;;;;;;;4.63;1.00;;;;;;;;;;4977622;28;20411;-67
2023/09/29 04:35:43;;;;;;;2.50;0.77;;;;;;;;;;4976879;28;20052;-67
2023/09/29 04:38:09;;;;;;;3.72;1.13;;;;;;;;;;4977593;28;20065;-66
2023/09/29 04:40:37;;;;;;;3.45;1.00;;;;;;;;;;4977769;28;20071;-65
2023/09/29 04:43:05;;;;;;;3.45;0.80;;;;;;;;;;4977950;28;20041;-65
2023/09/29 04:45:33;;;;;;;3.10;0.82;;;;;;;;;;4976239;28;20403;-64
2023/09/29 04:48:00;;;;;;;5.30;1.92;;;;;;;;;;4977847;28;20035;-66
2023/09/29 04:50:27;;;;;;;8.15;2.63;;;;;;;;;;4976714;28;20042;-67
2023/09/29 04:52:54;;;;;;;14.32;1.45;;;;;;;;;;4978456;28;20048;-64
2023/09/29 04:55:20;;;;;;;4.80;1.17;;;;;;;;;;4984663;28;20045;-66
2023/09/29 04:57:47;;;;;;;4.07;1.30;;;;;;;;;;4976912;28;20322;-65
2023/09/29 05:00:15;;;;;;;3.90;1.35;;;;;;;;;;4977982;28;21054;-63
2023/09/29 05:02:41;;;;;;;2.78;0.88;;;;;;;;;;4975451;28;20045;-63
2023/09/29 05:05:08;;;;;;;4.30;1.30;;;;;;;;;;4976537;28;20056;-64
2023/09/29 05:07:35;;;;;;;3.10;1.13;;;;;;;;;;4976232;28;20141;-64
2023/09/29 05:10:02;;;;;;;3.47;1.08;;;;;;;;;;4977926;28;20519;-64
2023/09/29 05:12:30;;;;;;;4.65;1.25;;;;;;;;;;4991065;28;20069;-63
2023/09/29 05:14:57;;;;;;;3.90;1.00;;;;;;;;;;5008509;28;20054;-63
2023/09/29 05:17:24;;;;;;;3.05;0.93;;;;;;;;;;4977319;28;20099;-64
2023/09/29 05:19:50;;;;;;;4.85;1.05;;;;;;;;;;4978190;28;20169;-64
2023/09/29 05:22:17;;;;;;;3.53;0.90;;;;;;;;;;4977563;28;21794;-63
2023/09/29 05:24:44;;;;;;;2.15;0.80;;;;;;;;;;4991822;28;20034;-64
2023/09/29 05:27:11;;;;;;;2.50;0.70;;;;;;;;;;4977315;28;20154;-63
2023/09/29 05:29:38;;;;;;;4.35;0.88;;;;;;;;;;4975487;28;20046;-64
2023/09/29 05:32:05;;;;;;;5.32;0.80;;;;;;;;;;4980387;28;20120;-66
2023/09/29 05:34:32;;;;;;;3.20;0.75;;;;;;;;;;4985027;28;20482;-65
2023/09/29 05:36:59;;;;;;;1.80;0.60;;;;;;;;;;4978039;28;20084;-64
2023/09/29 05:39:25;;;;;;;3.28;0.80;;;;;;;;;;4977565;28;20049;-66
2023/09/29 05:41:52;;;;;;;4.32;0.80;;;;;;;;;;4978148;28;20076;-65
2023/09/29 05:44:18;;;;;;;4.93;0.80;;;;;;;;;;4977941;28;20050;-66
2023/09/29 05:46:46;;;;;;;4.38;1.00;;;;;;;;;;4980759;28;20045;-65
2023/09/29 05:49:13;;;;;;;3.03;0.90;;;;;;;;;;4982019;28;20046;-65
2023/09/29 05:51:40;;;;;;;2.80;0.80;;;;;;;;;;4980282;28;20038;-65
2023/09/29 05:54:06;;;;;;;2.58;0.88;;;;;;;;;;4980812;28;20046;-65
2023/09/29 05:56:33;;;;;;;2.97;0.82;;;;;;;;;;4980580;28;20034;-66
2023/09/29 05:59:00;;;;;;;5.05;0.95;;;;;;;;;;5013419;28;20101;-65
2023/09/29 06:01:27;;;;;;;2.40;0.80;;;;;;;;;;4979997;28;20081;-65
2023/09/29 06:03:54;;;;;;;4.45;0.90;;;;;;;;;;4981655;28;20050;-67
2023/09/29 06:06:20;;;;;;;5.80;0.93;;;;;;;;;;4980110;28;20466;-66
2023/09/29 06:08:47;;;;;;;4.63;0.98;;;;;;;;;;5019343;28;20042;-66
2023/09/29 06:11:14;;;;;;;3.55;1.00;;;;;;;;;;4979864;28;20755;-65
2023/09/29 06:13:42;;;;;;;3.90;1.00;;;;;;;;;;4979394;28;20061;-64
2023/09/29 06:16:09;;;;;;;3.20;1.02;;;;;;;;;;5011211;28;20044;-66
2023/09/29 06:18:35;;;;;;;8.40;1.30;;;;;;;;;;4979268;28;20077;-66
2023/09/29 06:21:03;;;;;;;5.07;1.00;;;;;;;;;;4983082;28;20125;-66
2023/09/29 06:23:30;;;;;;;3.10;0.90;;;;;;;;;;4978986;28;20046;-64
2023/09/29 06:25:59;;;;;;;2.25;0.70;;;;;;;;;;4981287;28;20384;-66
2023/09/29 06:28:26;;;;;;;3.58;0.80;;;;;;;;;;4980048;28;20518;-65
2023/09/29 06:30:55;;;;;;;6.30;0.77;;;;;;;;;;4980504;28;20160;-64
2023/09/29 06:33:22;;;;;;;4.93;0.88;;;;;;;;;;4979321;28;20048;-64
2023/09/29 06:35:49;;;;;;;4.97;0.75;;;;;;;;;;4981346;28;20133;-65
2023/09/29 06:38:15;;;;;;;4.50;1.00;;;;;;;;;;4980540;28;20043;-65
2023/09/29 06:40:44;;;;;;;4.50;1.10;;;;;;;;;;4980722;28;20442;-65
2023/09/29 06:43:11;;;;;;;3.20;0.90;;;;;;;;;;4980321;28;20047;-65
2023/09/29 06:45:38;;;;;;;4.13;1.20;;;;;;;;;;4979716;28;20060;-65
2023/09/29 06:48:07;;;;;;;2.50;0.90;;;;;;;;;;4978991;28;20039;-66
2023/09/29 06:50:34;;;;;;;3.17;0.80;;;;;;;;;;4973135;28;20570;-65
2023/09/29 06:53:01;;;;;;;5.00;1.08;;;;;;;;;;4993998;28;20054;-65
2023/09/29 06:55:27;;;;;;;2.53;0.80;;;;;;;;;;4977082;28;20092;-65
2023/09/29 06:57:54;;;;;;;3.60;1.10;;;;;;;;;;4986581;28;20112;-66
2023/09/29 07:00:21;;;;;;;3.30;0.80;;;;;;;;;;4979291;28;20035;-65
2023/09/29 07:02:47;;;;;;;2.90;0.90;;;;;;;;;;5000527;28;20048;-64
2023/09/29 07:05:15;;;;;;;4.15;0.90;;;;;;;;;;4987271;28;20042;-65
2023/09/29 07:07:43;;;;;;;2.47;0.80;;;;;;;;;;4979160;28;20038;-66
2023/09/29 07:10:10;;;;;;;6.80;0.95;;;;;;;;;;4973631;28;20479;-67
2023/09/29 07:12:36;;;;;;;4.68;0.90;;;;;;;;;;4978606;28;20102;-65
2023/09/29 07:15:03;;;;;;;2.30;0.80;;;;;;;;;;4980254;28;20050;-65
2023/09/29 07:17:30;;;;;;;2.75;0.80;;;;;;;;;;4981312;28;20037;-66
2023/09/29 07:20:16;;;;;;;5.22;1.08;;;;;;;;;;4997872;28;20443;-63
2023/09/29 07:22:43;;;;;;;4.68;1.00;;;;;;;;;;5001961;28;20037;-65
2023/09/29 07:25:10;;;;;;;2.72;0.88;;;;;;;;;;4989410;28;20037;-65
2023/09/29 07:27:37;;;;;;;4.82;0.90;;;;;;;;;;4996649;28;20479;-64
2023/09/29 07:30:04;;;;;;;4.43;0.90;;;;;;;;;;4989930;28;20565;-64
2023/09/29 07:32:31;;;;;;;3.28;1.00;;;;;;;;;;5002233;28;20049;-63
2023/09/29 07:34:57;;;;;;;9.68;1.17;;;;;;;;;;4985376;28;20079;-65
2023/09/29 07:37:24;;;;;;;4.45;1.10;;;;;;;;;;5001619;28;20099;-65
2023/09/29 07:39:51;;;;;;;4.03;0.73;;;;;;;;;;4984310;28;20068;-64
2023/09/29 07:42:37;;;;;;;3.90;0.85;;;;;;;;;;4989826;28;20414;-66
2023/09/29 07:45:04;;;;;;;5.63;0.80;;;;;;;;;;4994707;28;20038;-64
2023/09/29 07:47:31;;;;;;;2.55;0.85;;;;;;;;;;4998844;28;20037;-64
2023/09/29 07:49:58;;;;;;;2.33;0.60;;;;;;;;;;4993485;28;20683;-64
2023/09/29 07:52:28;;;;;;;2.97;0.80;;;;;;;;;;4979249;28;20760;-64
2023/09/29 07:54:57;;;;;;;4.45;0.90;;;;;;;;;;4978415;28;20257;-65
2023/09/29 07:57:26;;;;;;;4.07;0.77;;;;;;;;;;4978563;28;20044;-67
2023/09/29 07:59:52;;;;;;;4.80;0.88;;;;;;;;;;5015528;28;21464;-64
2023/09/29 08:02:19;;;;;;;5.65;0.80;;;;;;;;;;5031324;28;20041;-67
2023/09/29 08:04:45;;;;;;;2.85;0.75;;;;;;;;;;5014536;28;20045;-64
2023/09/29 08:07:13;;;;;;;3.20;0.85;;;;;;;;;;5013936;28;20556;-64
2023/09/29 08:09:40;;;;;;;2.70;0.90;;;;;;;;;;5013889;28;20051;-65
2023/09/29 08:12:26;;;;;;;2.75;0.80;;;;;;;;;;5013559;28;20057;-64
2023/09/29 08:14:53;;;;;;;2.60;0.80;;;;;;;;;;4961645;28;20057;-65
2023/09/29 08:17:20;;;;;;;2.80;0.77;;;;;;;;;;4961585;28;20596;-65
2023/09/29 08:19:47;;;;;;;4.85;0.90;;;;;;;;;;4972665;28;20471;-65
2023/09/29 08:22:13;;;;;;;2.95;0.90;;;;;;;;;;4973975;28;20523;-65
2023/09/29 08:24:40;;;;;;;3.55;1.20;;;;;;;;;;4959349;28;20042;-65
2023/09/29 08:27:07;;;;;;;2.70;1.00;;;;;;;;;;4975093;28;20048;-67
2023/09/29 08:29:34;;;;;;;2.50;0.90;;;;;;;;;;4971804;28;20050;-64
2023/09/29 08:32:01;;;;;;;3.15;0.80;;;;;;;;;;4974400;28;20070;-65
2023/09/29 08:34:30;;;;;;;2.42;0.80;;;;;;;;;;4991353;28;20050;-65
2023/09/29 08:36:56;;;;;;;2.95;0.93;;;;;;;;;;4991463;28;20399;-66
2023/09/29 08:39:23;;;;;;;5.68;0.90;;;;;;;;;;4987155;28;20034;-66
2023/09/29 08:42:05;;;;;;;2.78;0.88;;;;;;;;;;4976284;28;20450;-65
2023/09/29 08:44:33;;;;;;;2.88;0.90;;;;;;;;;;4971497;28;20038;-65
2023/09/29 08:47:01;;;;;;;3.15;1.02;;;;;;;;;;4973662;28;20078;-65
2023/09/29 08:49:29;;;;;;;5.60;0.90;;;;;;;;;;4974234;28;20045;-66
2023/09/29 08:51:56;;;;;;;3.45;0.93;;;;;;;;;;4995754;28;20057;-64
2023/09/29 08:54:25;;;;;;;2.70;0.90;;;;;;;;;;4976248;28;20073;-65
2023/09/29 08:56:51;;;;;;;2.50;0.85;;;;;;;;;;4977464;28;20045;-67
2023/09/29 08:59:18;;;;;;;3.58;1.00;;;;;;;;;;4989653;28;20491;-68
2023/09/29 09:01:46;;;;;;;3.03;0.90;;;;;;;;;;4974798;28;20034;-67
2023/09/29 09:04:12;;;;;;;3.13;0.98;;;;;;;;;;4991518;28;20037;-65
2023/09/29 09:06:41;;;;;;;2.95;0.90;;;;;;;;;;4975170;28;20053;-65
2023/09/29 09:09:08;;;;;;;2.70;0.95;;;;;;;;;;4977280;28;20340;-64
2023/09/29 09:11:44;;;;;;;3.22;1.00;;;;;;;;;;4991633;28;20136;-62
2023/09/29 09:14:11;;;;;;;2.85;0.90;;;;;;;;;;4975989;28;20181;-66
2023/09/29 09:16:40;;;;;;;5.70;1.40;;;;;;;;;;4975833;28;20038;-63
2023/09/29 09:19:10;;;;;;;4.68;1.00;;;;;;;;;;4990764;28;20049;-63
2023/09/29 09:21:37;;;;;;;5.22;1.15;;;;;;;;;;4984867;28;20081;-63
2023/09/29 09:24:03;;;;;;;7.25;1.00;;;;;;;;;;4975762;28;20058;-65
2023/09/29 09:26:30;;;;;;;3.85;1.13;;;;;;;;;;4975219;28;20042;-65
2023/09/29 09:29:07;;;;;;;4.40;1.10;;;;;;;;;;5009304;28;20383;-64
2023/09/29 09:31:46;;;;;;;5.85;1.10;;;;;;;;;;5007346;28;20409;-65
2023/09/29 09:34:13;;;;;;;2.95;0.80;;;;;;;;;;4974822;28;20058;-66
2023/09/29 09:37:13;;;;;;;2.72;1.02;;;;;;;;;;4975995;28;20045;-65
2023/09/29 09:39:42;;;;;;;3.58;0.90;;;;;;;;;;5012368;28;20489;-67
2023/09/29 09:42:09;;;;;;;2.85;1.00;;;;;;;;;;5029784;28;20037;-64
2023/09/29 09:44:38;;;;;;;3.90;1.27;;;;;;;;;;4997054;28;20034;-65
2023/09/29 09:47:10;;;;;;;6.03;1.00;;;;;;;;;;5013735;28;20048;-64
2023/09/29 09:49:41;;;;;;;4.97;1.35;;;;;;;;;;5017507;28;20498;-63
2023/09/29 09:52:12;;;;;;;5.18;1.35;;;;;;;;;;5029969;28;20220;-63
2023/09/29 09:54:42;;;;;;;2.83;1.30;;;;;;;;;;5012033;28;20053;-64
2023/09/29 09:57:11;;;;;;;4.38;1.17;;;;;;;;;;5012716;28;20623;-64
2023/09/29 09:59:39;;;;;;;3.47;1.23;;;;;;;;;;5012891;28;20131;-64
2023/09/29 10:02:07;;;;;;;3.28;1.20;;;;;;;;;;5014070;28;20072;-64
2023/09/29 10:04:36;;;;;;;4.97;1.42;;;;;;;;;;5011536;28;20061;-64
2023/09/29 10:07:04;;;;;;;3.95;1.23;;;;;;;;;;5014001;28;20927;-64
2023/09/29 10:09:44;;;;;;;5.68;1.58;;;;;;;;;;5011706;28;20041;-64
2023/09/29 10:12:27;;;;;;;4.40;1.60;;;;;;;;;;4996149;28;20558;-62
2023/09/29 10:14:56;;;;;;;2.60;0.90;;;;;;;;;;4976705;28;20054;-64
2023/09/29 10:17:22;;;;;;;5.30;1.42;;;;;;;;;;4976799;28;20284;-63
2023/09/29 10:19:51;;;;;;;4.45;1.50;;;;;;;;;;4976507;28;20038;-63
2023/09/29 10:22:28;;;;;;;3.95;1.33;;;;;;;;;;4976949;28;20364;-62
2023/09/29 10:24:56;;;;;;;3.28;1.20;;;;;;;;;;4982398;28;20034;-63
2023/09/29 10:27:31;;;;;;;3.75;1.20;;;;;;;;;;4975063;28;20045;-63
2023/09/29 10:30:16;;;;;;;3.85;1.33;;;;;;;;;;4976134;28;20058;-64
2023/09/29 10:32:49;;;;;;;6.07;1.55;;;;;;;;;;4976341;28;20060;-64
2023/09/29 10:35:19;;;;;;;3.78;1.13;;;;;;;;;;4980283;28;20058;-64
2023/09/29 10:37:54;;;;;;;4.15;1.48;;;;;;;;;;4977488;28;20388;-65
2023/09/29 10:40:44;;;;;;;6.43;1.63;;;;;;;;;;4977599;28;20049;-65
2023/09/29 10:43:12;;;;;;;5.43;1.48;;;;;;;;;;4980624;28;20596;-65
2023/09/29 10:45:40;;;;;;;3.97;1.40;;;;;;;;;;4978473;28;20034;-65
2023/09/29 10:48:08;;;;;;;6.03;1.40;;;;;;;;;;4979508;28;20038;-64
2023/09/29 10:50:51;;;;;;;4.53;1.35;;;;;;;;;;4980041;28;20064;-63
2023/09/29 10:53:22;;;;;;;4.15;1.67;;;;;;;;;;4978940;28;20053;-64
2023/09/29 10:55:50;;;;;;;3.58;1.40;;;;;;;;;;4978964;28;20168;-63
2023/09/29 10:58:21;;;;;;;3.95;1.42;;;;;;;;;;4980022;28;20069;-64
2023/09/29 11:00:49;;;;;;;4.47;1.27;;;;;;;;;;4980927;28;20080;-63
2023/09/29 11:03:17;;;;;;;3.95;1.35;;;;;;;;;;4996086;28;20042;-64
2023/09/29 11:05:48;;;;;;;4.65;1.75;;;;;;;;;;4987758;28;20198;-64
2023/09/29 11:08:19;;;;;;;6.43;1.50;;;;;;;;;;4980335;28;20444;-63
2023/09/29 11:11:12;;;;;;;4.45;1.63;;;;;;;;;;4979704;28;20042;-64
2023/09/29 11:13:39;;;;;;;3.45;1.45;;;;;;;;;;4987788;28;20065;-64
2023/09/29 11:16:27;;;;;;;4.85;1.77;;;;;;;;;;4978548;28;20046;-63
2023/09/29 11:18:56;;;;;;;4.65;1.40;;;;;;;;;;4978364;28;20113;-63
2023/09/29 11:21:35;;;;;;;6.60;1.67;;;;;;;;;;4978434;28;20084;-64
2023/09/29 11:24:06;;;;;;;6.85;1.90;;;;;;;;;;4978204;28;20037;-62
2023/09/29 11:26:34;;;;;;;4.25;1.65;;;;;;;;;;4977441;28;20085;-64
2023/09/29 11:29:02;;;;;;;4.60;1.58;;;;;;;;;;4978416;28;21360;-63
2023/09/29 11:31:29;;;;;;;4.30;1.60;;;;;;;;;;4977755;28;20038;-63
2023/09/29 11:33:56;;;;;;;4.00;1.80;;;;;;;;;;4978499;28;20054;-63
2023/09/29 11:36:23;;;;;;;3.90;1.50;;;;;;;;;;4977774;28;20050;-64
2023/09/29 11:38:51;;;;;;;4.85;1.63;;;;;;;;;;4976137;28;20066;-65
2023/09/29 11:41:17;;;;;;;4.95;1.60;;;;;;;;;;4978843;28;20042;-64
2023/09/29 11:43:45;;;;;;;9.60;1.70;;;;;;;;;;4976965;28;20050;-65
2023/09/29 11:46:14;;;;;;;4.70;1.67;;;;;;;;;;4978740;28;20041;-63
2023/09/29 11:48:42;;;;;;;7.35;1.60;;;;;;;;;;4978337;28;20076;-64
2023/09/29 11:51:10;;;;;;;3.55;1.48;;;;;;;;;;4979402;28;20034;-63
2023/09/29 11:53:38;;;;;;;4.35;1.58;;;;;;;;;;4977271;28;20073;-64
2023/09/29 11:56:05;;;;;;;4.20;1.60;;;;;;;;;;4978960;28;20034;-63
2023/09/29 11:58:32;;;;;;;4.40;1.67;;;;;;;;;;4978527;28;20478;-63
2023/09/29 12:01:00;;;;;;;6.05;1.55;;;;;;;;;;4978930;28;20050;-63
2023/09/29 12:03:27;;;;;;;5.25;1.60;;;;;;;;;;4977039;28;20345;-63
2023/09/29 12:05:54;;;;;;;4.13;1.55;;;;;;;;;;4976032;28;20132;-64
2023/09/29 12:08:21;;;;;;;5.53;1.63;;;;;;;;;;4976717;28;20054;-62
2023/09/29 12:10:48;;;;;;;3.47;1.42;;;;;;;;;;4977973;28;20112;-62
2023/09/29 12:13:15;;;;;;;4.70;1.60;;;;;;;;;;4977808;28;20034;-66
2023/09/29 12:15:45;;;;;;;3.13;1.40;;;;;;;;;;4977526;28;20057;-64
2023/09/29 12:18:12;;;;;;;6.15;1.58;;;;;;;;;;4977606;28;20152;-64
2023/09/29 12:20:39;;;;;;;4.70;1.67;;;;;;;;;;4975099;28;20045;-61
2023/09/29 12:23:08;;;;;;;4.53;1.50;;;;;;;;;;4978892;28;20095;-69
2023/09/29 12:25:35;;;;;;;4.45;1.70;;;;;;;;;;4977615;28;20054;-64
2023/09/29 12:28:03;;;;;;;3.92;1.30;;;;;;;;;;4976851;28;20489;-64
2023/09/29 12:30:30;;;;;;;4.90;1.52;;;;;;;;;;4977098;28;20576;-65
2023/09/29 12:32:56;;;;;;;5.90;1.65;;;;;;;;;;4978210;28;20093;-65
2023/09/29 12:35:23;;;;;;;5.53;1.85;;;;;;;;;;4975425;28;20061;-65
2023/09/29 12:37:50;;;;;;;4.35;1.67;;;;;;;;;;4977434;28;20498;-64
2023/09/29 12:40:16;;;;;;;6.97;1.98;;;;;;;;;;4977240;28;20168;-68
2023/09/29 12:42:50;;;;;;;6.18;1.85;;;;;;;;;;4977055;28;20042;-64
2023/09/29 12:45:18;;;;;;;;;;;;;;;;;;4978647;28;20420;-62
2023/09/29 12:47:48;;;;;;;8.07;1.88;;;;;;;;;;4975987;28;19929;-64
2023/09/29 12:50:14;;;;;;;4.78;1.85;;;;;;;;;;4977756;28;20045;-64
2023/09/29 12:52:41;;;;;;;6.00;1.80;;;;;;;;;;5007601;28;20122;-64
2023/09/29 12:55:09;;;;;;;4.30;1.77;;;;;;;;;;4976659;28;20558;-66
2023/09/29 12:57:36;;;;;;;10.50;2.22;;;;;;;;;;4970431;28;20050;-63
2023/09/29 13:00:04;;;;;;;7.03;1.95;;;;;;;;;;4977806;28;20046;-66
2023/09/29 13:02:34;;;;;;;10.23;2.55;;;;;;;;;;4977731;28;20265;-64
2023/09/29 13:05:01;;;;;;;8.25;2.17;;;;;;;;;;4977917;28;20050;-64
2023/09/29 13:07:28;;;;;;;7.30;2.00;;;;;;;;;;4991163;28;20069;-65
2023/09/29 13:09:55;;;;;;;9.90;2.30;;;;;;;;;;4977562;28;21075;-65
2023/09/29 13:12:21;;;;;;;8.13;2.35;;;;;;;;;;4976349;28;21348;-64
2023/09/29 13:14:48;;;;;;;6.38;2.03;;;;;;;;;;4977538;28;20043;-65
2023/09/29 13:17:15;;;;;;;11.30;2.30;;;;;;;;;;5008867;28;20401;-65
2023/09/29 13:19:42;;;;;;;6.90;1.90;;;;;;;;;;4977073;28;20061;-66
2023/09/29 13:22:09;;;;;;;7.55;1.95;;;;;;;;;;4978555;28;20038;-66
2023/09/29 13:24:36;;;;;;;6.22;2.05;;;;;;;;;;4984700;28;20126;-63
2023/09/29 13:27:02;;;;;;;6.15;1.70;;;;;;;;;;4976525;28;20035;-65
2023/09/29 13:29:29;;;;;;;6.70;2.00;;;;;;;;;;4976651;28;20174;-64
2023/09/29 13:31:56;;;;;;;7.13;2.22;;;;;;;;;;4978441;28;20653;-63
2023/09/29 13:34:23;;;;;;;5.07;1.83;;;;;;;;;;4975795;28;20149;-65
2023/09/29 13:36:49;;;;;;;8.88;2.15;;;;;;;;;;4976548;28;20582;-65
2023/09/29 13:39:16;;;;;;;8.50;2.20;;;;;;;;;;4983107;28;20372;-63
2023/09/29 13:41:43;;;;;;;6.20;1.90;;;;;;;;;;4993025;28;20116;-64
2023/09/29 13:44:10;;;;;;;10.10;2.05;;;;;;;;;;4976060;28;20358;-63
2023/09/29 13:46:37;;;;;;;11.77;2.10;;;;;;;;;;4974796;28;20039;-64
2023/09/29 13:49:03;;;;;;;10.88;2.50;;;;;;;;;;4976835;28;20049;-63
2023/09/29 13:51:30;;;;;;;9.77;2.30;;;;;;;;;;4976044;28;20045;-62
2023/09/29 13:53:56;;;;;;;14.75;2.05;;;;;;;;;;4975027;28;20059;-63
2023/09/29 13:56:25;;;;;;;5.03;1.90;;;;;;;;;;4976744;28;20046;-66
2023/09/29 13:58:52;;;;;;;5.30;2.05;;;;;;;;;;4976615;28;20053;-65
2023/09/29 14:01:19;;;;;;;7.07;2.15;;;;;;;;;;4975640;28;22084;-69
2023/09/29 14:03:47;;;;;;;8.73;1.92;;;;;;;;;;5008504;28;20054;-65
2023/09/29 14:06:14;;;;;;;8.25;2.10;;;;;;;;;;4979281;28;20046;-63
2023/09/29 14:08:41;;;;;;;8.20;2.22;;;;;;;;;;4995748;28;20057;-64
2023/09/29 14:11:08;;;;;;;6.60;1.85;;;;;;;;;;4981371;28;20042;-64
2023/09/29 14:13:34;;;;;;;7.53;2.40;;;;;;;;;;4980054;28;20558;-66
2023/09/29 14:16:01;;;;;;;10.73;2.40;;;;;;;;;;5006131;28;21482;-65
2023/09/29 14:18:27;;;;;;;8.80;2.58;;;;;;;;;;4967229;28;20499;-65
2023/09/29 14:20:54;;;;;;;6.95;2.33;;;;;;;;;;5011798;28;20042;-65
2023/09/29 14:23:21;;;;;;;9.93;2.70;;;;;;;;;;4979879;28;20038;-65
2023/09/29 14:25:47;;;;;;;6.85;2.00;;;;;;;;;;4981922;28;20054;-65
2023/09/29 14:28:14;;;;;;;9.13;2.60;;;;;;;;;;4980277;28;20070;-65
2023/09/29 14:30:41;;;;;;;8.23;2.50;;;;;;;;;;4980584;28;20387;-64
2023/09/29 14:33:08;;;;;;;8.25;2.10;;;;;;;;;;4981091;28;21664;-64
2023/09/29 14:35:35;;;;;;;5.13;1.95;;;;;;;;;;4979988;28;20057;-65
2023/09/29 14:38:01;;;;;;;8.20;2.58;;;;;;;;;;4976679;28;20129;-66
2023/09/29 14:40:30;;;;;;;6.00;2.30;;;;;;;;;;4981297;28;20180;-65
2023/09/29 14:42:57;;;;;;;10.35;2.38;;;;;;;;;;4980519;28;20349;-66
2023/09/29 14:45:24;;;;;;;7.25;2.28;;;;;;;;;;4993836;28;20144;-64
2023/09/29 14:47:51;;;;;;;7.70;2.17;;;;;;;;;;4978984;28;20388;-64
2023/09/29 14:50:18;;;;;;;7.85;2.65;;;;;;;;;;4980780;28;20042;-64